Red Lodge, MT (59068)

2:56 PM MDT on May 22, 2015 (GMT -0600)
Summit Station West of | | Change Station
CLOSE
Current Station
Personal Weather Station
Location: Red Lodge, MT
Elevation: 5415 ft
Nearby Weather Stations

Elev 5415 ft 45.22 °N, 109.30 °W | Updated 11 minutes ago

Overcast
Overcast
57.4 °F
Feels Like 57.4 °F
N
5.8
Wind Variable Wind from NNE

Today
High -- | Low -- °F
--% Chance of Precip.
Yesterday
High -- | Low -- °F
Precip. -- in
5:40 AM 8:47 PM
Waxing Crescent, 24% visible
Pressure 29.95 in
Visibility 10.0 miles
Clouds Mostly Cloudy 3800 ft
Mostly Cloudy 4500 ft
Overcast 7000 ft
Dew Point 46 °F
Humidity 66%
Rainfall 0.00 in
Snow Depth Not available.
UV 3 out of 12
Pollen 8.20 out of 12
Air Quality Not available.
Flu Activity Local Activity
METAR KCOD 222035Z AUTO 29004KT 10SM BKN038 BKN045 OVC070 12/08 A2995 RMK AO1 LTG DSNT SE P0007

More Conditions Fewer Conditions

Pressure 29.95 in
Visibility 10.0 miles
Clouds Mostly Cloudy 3800 ft
Mostly Cloudy 4500 ft
Overcast 7000 ft
Dew Point 46 °F
Humidity 66%
Rainfall 0.00 in
Snow Depth Not available.
UV 3 out of 12
Pollen 8.20 out of 12
Air Quality Not available.
Flu Activity Local Activity
METAR KCOD 222035Z AUTO 29004KT 10SM BKN038 BKN045 OVC070 12/08 A2995 RMK AO1 LTG DSNT SE P0007

More Conditions Fewer Conditions

10-Day Weather Forecast

Almanac

Astronomy

May. 22, 2015 Rise Set
Actual Time
Civil Twilight
Nautical Twilight
Astronomical Twilight
Moon
Length of Visible Light
Length of Day
Tomorrow will be .
, % of the Moon is Illuminated

Today's Extremes

State Highs State Lows

Community

WunderPhotos

Upload Photos

1,823,295 photos uploaded!

WunderBlogs® & News

Nearby

Air Quality

  Air Quality AQ Index Pollutant
Not available.

Snow Depth

Station Depth Elevation

Earthquake Activity

City Distance Mag. Time & Date
Minimum magnitude displayed is 2.5.

Coastal Water Temperatures

Place Temperature

Stations

Nearby Weather Stations

Station Location Temp. Windchill Dew Point Humidity Wind Precip. Elev Updated Type